Flight Track Log - Related Links

Times and Time Zones

All times are in EDT time to prevent confusion due to time zone crossing. See the TRS679 flight status page for this flight to view local times or setup timezone preferences in your user account.

Time Position Orientation Groundspeed Altitude Reporting Facility
EDT Latitude Longitude Course Direction KTS MPH feet Rate Location/Type
Sun 06:19:42 PM 33.6331 -84.3806 121° Southeast 449 517 2,700  Level Atlanta Center
Sun 06:20:42 PM 33.6333 -84.2983 90° East 332 382 3,900 1,800 Climbing Atlanta Center
Sun 06:21:42 PM 33.6333 -84.2086 90° East 277 319 6,300 2,400 Climbing Atlanta Center
Sun 06:22:42 PM 33.6336 -84.1136 90° East 285 328 8,700 2,050 Climbing Atlanta Center
Sun 06:23:42 PM 33.6147 -84.0114 102° East 309 356 10,400 1,500 Climbing Atlanta Center
Sun 06:24:42 PM 33.5917 -83.8967 104° East 340 391 11,700 1,550 Climbing Atlanta Center
Sun 06:25:00 PM 33.5918 -83.7502 121° Southeast  Level FlightAware Approximate
Sun 06:25:42 PM 33.5686 -83.7744 103° East 360 414 13,500  Level Atlanta Center
Sun 06:26:42 PM 33.5494 -83.6475 100° East 382 440 15,500 1,950 Climbing Atlanta Center
Sun 06:27:42 PM 33.5592 -83.5028 85° East 391 450 17,400 1,500 Climbing Atlanta Center
Sun 06:28:42 PM 33.5753 -83.3631 82° East 406 467 18,500 1,400 Climbing Atlanta Center
Sun 06:29:42 PM 33.5911 -83.2208 82° East 419 482 20,200 1,650 Climbing Atlanta Center
Sun 06:30:42 PM 33.6089 -83.0686 82° East 440 506 21,800 1,600 Climbing Atlanta Center
Sun 06:31:42 PM 33.6242 -82.9186 83° East 450 518 23,400 1,500 Climbing Atlanta Center
Sun 06:32:42 PM 33.6414 -82.7586 83° East 467 537 24,800 1,250 Climbing Atlanta Center
Sun 06:33:42 PM 33.6564 -82.6039 83° East 467 537 25,900 1,150 Climbing Atlanta Center
Sun 06:34:42 PM 33.6733 -82.4439 83° East 485 558 27,100 1,045 Climbing Atlanta Center
Sun 06:36:40 PM 33.7108 -82.1236 82° East 482 555 29,000 640 Climbing Jacksonville Center
Sun 06:37:40 PM 33.7350 -81.9611 80° East 482 555 29,000  Level Jacksonville Center
Sun 06:38:40 PM 33.7567 -81.8033 81° East 482 555 29,000  Level Jacksonville Center
Sun 06:39:40 PM 33.7781 -81.6433 81° East 482 555 29,000  Level Jacksonville Center
Sun 06:40:39 PM 33.8203 -81.4903 72° East 482 555 29,000  Level Jacksonville Center
Sun 06:41:40 PM 33.9064 -81.3661 50° Northeast 462 532 29,000  Level Jacksonville Center
Sun 06:42:39 PM 33.9906 -81.2419 51° Northeast 467 537 29,000  Level Jacksonville Center
Sun 06:43:40 PM 34.0744 -81.1200 50° Northeast 473 544 29,000  Level Jacksonville Center
Sun 06:44:40 PM 34.1519 -81.0081 50° Northeast 479 551 29,000  Level Jacksonville Center
Sun 06:45:40 PM 34.2417 -80.8756 51° Northeast 494 568 29,000  Level Jacksonville Center
Sun 06:46:40 PM 34.3333 -80.7300 53° Northeast 486 559 29,000  Level Jacksonville Center
Sun 06:47:40 PM 34.4167 -80.6172 48° Northeast 500 575 29,000 -550 Level Jacksonville Center
Sun 06:48:40 PM 34.5042 -80.4864 51° Northeast 506 582 27,900 -1,691 Descending Jacksonville Center
Sun 06:50:48 PM 34.6792 -80.2161 52° Northeast 470 541 23,700 -1,532 Descending Washington Center
Sun 06:51:48 PM 34.7611 -80.0919 51° Northeast 470 541 23,100 -350 Descending Washington Center
Sun 06:52:48 PM 34.8678 -79.9739 42° Northeast 465 535 23,000 -50 Descending Washington Center
Sun 06:53:48 PM 34.9633 -79.8675 42° Northeast 459 528 23,000  Level Washington Center
Sun 06:54:48 PM 35.0589 -79.7608 42° Northeast 459 528 23,000 -800 Level Washington Center
Sun 06:55:48 PM 35.1369 -79.6786 41° Northeast 459 528 21,400 -2,069 Descending Washington Center
Sun 06:56:44 PM 35.2406 -79.5744 39° Northeast 432 497 19,000 -1,700 Descending Washington Center
Sun 06:57:48 PM 35.3431 -79.5031 30° Northeast 407 468 18,000 -726 Descending Washington Center
Sun 06:58:48 PM 35.4178 -79.4483 31° Northeast 370 426 17,500 -1,150 Descending Washington Center
Sun 06:59:48 PM 35.5056 -79.3836 31° Northeast 340 391 15,700 -1,750 Descending Washington Center
Sun 07:00:48 PM 35.5581 -79.3017 52° Northeast 329 379 14,000 -1,950 Descending Washington Center
Sun 07:01:48 PM 35.6197 -79.2000 53° Northeast 334 384 11,800 -2,000 Descending Washington Center
Sun 07:02:48 PM 35.6658 -79.1203 55° Northeast 329 379 10,000 -1,650 Descending Washington Center
Sun 07:03:48 PM 35.7183 -79.0356 53° Northeast 323 372 8,500 -1,000 Descending Washington Center
Sun 07:04:48 PM 35.7689 -78.9506 54° Northeast 317 365 8,000 -250 Descending Washington Center
Sun 07:05:48 PM 35.8311 -78.8917 37° Northeast 305 351 8,000  Level Washington Center
Sun 07:06:08 PM 35.8625 -78.8881 North 280 322 8,000 -1,259 Level Washington Center
Sun 07:07:09 PM 35.9406 -78.8578 17° North 294 338 6,300 -1,587 Descending Washington Center
Sun 07:08:09 PM 36.0006 -78.7936 41° Northeast 279 321 4,800 -1,091 Descending Washington Center
Sun 07:09:10 PM 36.0336 -78.7256 59° Northeast 233 268 4,100 -836 Descending Washington Center
Sun 07:10:11 PM 35.9978 -78.6625 125° Southeast 218 251 3,100 -645 Descending Washington Center
Sun 07:11:11 PM 35.9533 -78.6864 204° Southwest 169 194 2,800 -694 Descending Washington Center
Sun 07:12:12 PM 35.9231 -78.7289 229° Southwest 158 182 1,700 -887 Descending Washington Center
Sun 07:13:06 PM 35.8972 -78.7561 220° Southwest 123 142 1,100 -667 Descending Washington Center
Sun 07:15:00 PM 35.8667 -78.7833 198° South  Level FlightAware Approximate
Sun 07:22:00 PM 35.8776 -78.7875 198° South  Level Estimated

Login

Don't have an account? Register now (free) for customized features, flight alerts, and more!